This is the latest recevied weather packets stored in our database for station/object EB1HRW. If no packets are shown the sender has not sent any weather packets the latest 10 day(s).
| Time | Temp. | Humidity | Pressure | Rain* | Wind** | Luminosity | Snow |
|---|---|---|---|---|---|---|---|
| 1777751624 | 15° C | 75% | 1012.8 hPa | 0 mm | - | - | - |
| 1777750725 | 15° C | 75% | 1012.8 hPa | 0 mm | - | - | - |
| 1777749824 | 15.56° C | 73% | 1012.8 hPa | 0 mm | - | - | - |
| 1777748924 | 16.11° C | 73% | 1012.7 hPa | 0 mm | - | - | - |
| 1777748025 | 16.11° C | 73% | 1012.6 hPa | 0 mm | - | - | - |
| 1777747125 | 16.11° C | 73% | 1012.4 hPa | 0 mm | - | - | - |
| 1777745325 | 16.67° C | 76% | 1012.1 hPa | 0 mm | - | - | - |
| 1777744424 | 16.67° C | 74% | 1012.1 hPa | 0 mm | - | - | - |
| 1777743524 | 17.22° C | 71% | 1012.1 hPa | 0 mm | - | - | - |
| 1777742580 | 17.22° C | 73% | 1012 hPa | 0 mm | - | - | - |
| 1777741679 | 16.67° C | 73% | 1012.1 hPa | 0 mm | - | - | - |
| 1777740780 | 16.67° C | 73% | 1012.2 hPa | 0 mm | - | - | - |
| 1777740364 | 16.67° C | 74% | 1012.2 hPa | 0 mm | - | - | - |
| 1777739466 | 18.33° C | 67% | 1012 hPa | 0 mm | - | - | - |
| 1777737666 | 19.44° C | 60% | 1011.6 hPa | 0 mm | - | - | - |
| 1777736760 | 18.89° C | 60% | 1011.7 hPa | 0 mm | - | - | - |
| 1777735867 | 18.33° C | 64% | 1011.9 hPa | 0 mm | - | - | - |
| 1777734965 | 18.33° C | 73% | 1012.1 hPa | 0 mm | - | - | - |
| 1777734060 | 17.78° C | 74% | 1012.1 hPa | 0 mm | - | - | - |
| 1777733161 | 16.67° C | 66% | 1012.4 hPa | 0 mm | - | - | - |
| 1777732259 | 14.44° C | 74% | 1012.7 hPa | 0 mm | - | - | - |
| 1777731360 | 13.89° C | 74% | 1013 hPa | 0 mm | - | - | - |
| 1777730460 | 14.44° C | 74% | 1013.1 hPa | 0 mm | - | - | - |
| 1777729559 | 14.44° C | 75% | 1013.3 hPa | 0 mm | - | - | - |
| 1777728659 | 14.44° C | 74% | 1013.6 hPa | 0 mm | - | - | - |
* Rain latest hour (hover to see other rain measurements)
** Current wind speed in m/s (hover to see current wind gust speed)